sensor_id;sensor_type;location;lat;lon;timestamp;temperature;humidity
17252;DHT22;8742;51.716;8.790;2024-01-30T00:00:07;7.10;99.90
17252;DHT22;8742;51.716;8.790;2024-01-30T00:02:34;7.10;99.90
17252;DHT22;8742;51.716;8.790;2024-01-30T00:05:01;7.00;99.90
17252;DHT22;8742;51.716;8.790;2024-01-30T00:07:29;7.00;99.90
17252;DHT22;8742;51.716;8.790;2024-01-30T00:09:56;7.00;99.90
17252;DHT22;8742;51.716;8.790;2024-01-30T00:12:24;7.00;99.90
17252;DHT22;8742;51.716;8.790;2024-01-30T00:14:52;7.00;99.90
17252;DHT22;8742;51.716;8.790;2024-01-30T00:17:18;7.10;99.90
17252;DHT22;8742;51.716;8.790;2024-01-30T00:19:46;7.10;99.90
17252;DHT22;8742;51.716;8.790;2024-01-30T00:22:12;7.10;99.90
17252;DHT22;8742;51.716;8.790;2024-01-30T00:24:39;7.10;99.90
17252;DHT22;8742;51.716;8.790;2024-01-30T00:27:05;7.10;99.90
17252;DHT22;8742;51.716;8.790;2024-01-30T00:29:34;7.10;99.90
17252;DHT22;8742;51.716;8.790;2024-01-30T00:32:00;7.10;99.90
17252;DHT22;8742;51.716;8.790;2024-01-30T00:34:27;7.10;99.90
17252;DHT22;8742;51.716;8.790;2024-01-30T00:36:54;7.10;99.90
17252;DHT22;8742;51.716;8.790;2024-01-30T00:39:21;7.10;99.90
17252;DHT22;8742;51.716;8.790;2024-01-30T00:41:48;7.10;99.90
17252;DHT22;8742;51.716;8.790;2024-01-30T00:44:15;7.10;99.90
17252;DHT22;8742;51.716;8.790;2024-01-30T00:46:43;7.10;99.90
17252;DHT22;8742;51.716;8.790;2024-01-30T00:49:11;7.10;99.90
17252;DHT22;8742;51.716;8.790;2024-01-30T00:51:37;7.00;99.90
17252;DHT22;8742;51.716;8.790;2024-01-30T00:54:04;7.00;99.90
17252;DHT22;8742;51.716;8.790;2024-01-30T00:56:31;7.00;99.90
17252;DHT22;8742;51.716;8.790;2024-01-30T00:58:58;7.00;99.90
17252;DHT22;8742;51.716;8.790;2024-01-30T01:01:25;7.00;99.90
17252;DHT22;8742;51.716;8.790;2024-01-30T01:03:53;7.00;99.90
17252;DHT22;8742;51.716;8.790;2024-01-30T01:06:20;7.00;99.90
17252;DHT22;8742;51.716;8.790;2024-01-30T01:08:47;6.90;99.90
17252;DHT22;8742;51.716;8.790;2024-01-30T01:11:14;6.90;99.90
17252;DHT22;8742;51.716;8.790;2024-01-30T01:13:41;6.90;99.90
17252;DHT22;8742;51.716;8.790;2024-01-30T01:16:07;6.90;99.90
17252;DHT22;8742;51.716;8.790;2024-01-30T01:18:34;6.90;99.90
17252;DHT22;8742;51.716;8.790;2024-01-30T01:21:02;6.90;99.90
17252;DHT22;8742;51.716;8.790;2024-01-30T01:23:30;6.90;99.90
17252;DHT22;8742;51.716;8.790;2024-01-30T01:25:57;6.80;99.90
17252;DHT22;8742;51.716;8.790;2024-01-30T01:28:25;6.80;99.90
17252;DHT22;8742;51.716;8.790;2024-01-30T01:30:52;6.90;99.90
17252;DHT22;8742;51.716;8.790;2024-01-30T01:33:24;6.90;99.90
17252;DHT22;8742;51.716;8.790;2024-01-30T01:35:51;6.90;99.90
17252;DHT22;8742;51.716;8.790;2024-01-30T01:38:20;6.80;99.90
17252;DHT22;8742;51.716;8.790;2024-01-30T01:40:47;6.80;99.90
17252;DHT22;8742;51.716;8.790;2024-01-30T01:43:13;6.80;99.90
17252;DHT22;8742;51.716;8.790;2024-01-30T01:45:40;6.80;99.90
17252;DHT22;8742;51.716;8.790;2024-01-30T01:48:07;6.90;99.90
17252;DHT22;8742;51.716;8.790;2024-01-30T01:50:35;6.80;99.90
17252;DHT22;8742;51.716;8.790;2024-01-30T01:53:03;6.90;99.90
17252;DHT22;8742;51.716;8.790;2024-01-30T01:55:33;6.80;99.90
17252;DHT22;8742;51.716;8.790;2024-01-30T01:58:00;6.80;99.90
17252;DHT22;8742;51.716;8.790;2024-01-30T02:00:27;6.90;99.90
17252;DHT22;8742;51.716;8.790;2024-01-30T02:02:55;6.90;99.90
17252;DHT22;8742;51.716;8.790;2024-01-30T02:05:22;6.90;99.90
17252;DHT22;8742;51.716;8.790;2024-01-30T02:07:50;6.90;99.90
17252;DHT22;8742;51.716;8.790;2024-01-30T02:10:17;6.90;99.90
17252;DHT22;8742;51.716;8.790;2024-01-30T02:12:46;7.00;99.90
17252;DHT22;8742;51.716;8.790;2024-01-30T02:15:13;7.00;99.90
17252;DHT22;8742;51.716;8.790;2024-01-30T02:17:40;7.00;99.90
17252;DHT22;8742;51.716;8.790;2024-01-30T02:20:08;7.00;99.90
17252;DHT22;8742;51.716;8.790;2024-01-30T02:22:37;7.00;99.90
17252;DHT22;8742;51.716;8.790;2024-01-30T02:25:05;7.00;99.90
17252;DHT22;8742;51.716;8.790;2024-01-30T02:27:31;7.00;99.90
17252;DHT22;8742;51.716;8.790;2024-01-30T02:29:59;7.00;99.90
17252;DHT22;8742;51.716;8.790;2024-01-30T02:32:26;7.00;99.90
17252;DHT22;8742;51.716;8.790;2024-01-30T02:34:53;7.00;99.90
17252;DHT22;8742;51.716;8.790;2024-01-30T02:37:20;7.00;99.90
17252;DHT22;8742;51.716;8.790;2024-01-30T02:39:48;7.00;99.90
17252;DHT22;8742;51.716;8.790;2024-01-30T02:42:15;7.00;99.90
17252;DHT22;8742;51.716;8.790;2024-01-30T02:44:42;6.90;99.90
17252;DHT22;8742;51.716;8.790;2024-01-30T02:47:09;7.00;99.90
17252;DHT22;8742;51.716;8.790;2024-01-30T02:49:36;7.00;99.90
17252;DHT22;8742;51.716;8.790;2024-01-30T02:52:03;7.00;99.90
17252;DHT22;8742;51.716;8.790;2024-01-30T02:54:30;7.10;99.90
17252;DHT22;8742;51.716;8.790;2024-01-30T02:56:58;7.10;99.90
17252;DHT22;8742;51.716;8.790;2024-01-30T02:59:25;7.10;99.90
17252;DHT22;8742;51.716;8.790;2024-01-30T03:01:51;7.10;99.90
17252;DHT22;8742;51.716;8.790;2024-01-30T03:04:18;7.10;99.90
17252;DHT22;8742;51.716;8.790;2024-01-30T03:06:45;7.10;99.90
17252;DHT22;8742;51.716;8.790;2024-01-30T03:09:13;7.10;99.90
17252;DHT22;8742;51.716;8.790;2024-01-30T03:11:40;7.10;99.90
17252;DHT22;8742;51.716;8.790;2024-01-30T03:14:08;7.10;99.90
17252;DHT22;8742;51.716;8.790;2024-01-30T03:16:36;7.00;99.90
17252;DHT22;8742;51.716;8.790;2024-01-30T03:19:04;7.00;99.90
17252;DHT22;8742;51.716;8.790;2024-01-30T03:21:31;7.00;99.90
17252;DHT22;8742;51.716;8.790;2024-01-30T03:23:57;7.00;99.90
17252;DHT22;8742;51.716;8.790;2024-01-30T03:26:25;7.00;99.90
17252;DHT22;8742;51.716;8.790;2024-01-30T03:28:51;7.00;99.90
17252;DHT22;8742;51.716;8.790;2024-01-30T03:31:20;7.10;99.90
17252;DHT22;8742;51.716;8.790;2024-01-30T03:33:46;7.10;99.90
17252;DHT22;8742;51.716;8.790;2024-01-30T03:36:15;7.10;99.90
17252;DHT22;8742;51.716;8.790;2024-01-30T03:38:42;7.10;99.90
17252;DHT22;8742;51.716;8.790;2024-01-30T03:41:09;7.20;99.90
17252;DHT22;8742;51.716;8.790;2024-01-30T03:43:36;7.20;99.90
17252;DHT22;8742;51.716;8.790;2024-01-30T03:46:03;7.30;99.90
17252;DHT22;8742;51.716;8.790;2024-01-30T03:48:31;7.30;99.90
17252;DHT22;8742;51.716;8.790;2024-01-30T03:50:58;7.30;99.90
17252;DHT22;8742;51.716;8.790;2024-01-30T03:53:25;7.30;99.90
17252;DHT22;8742;51.716;8.790;2024-01-30T03:55:52;7.30;99.90
17252;DHT22;8742;51.716;8.790;2024-01-30T03:58:18;7.30;99.90
17252;DHT22;8742;51.716;8.790;2024-01-30T04:00:45;7.30;99.90
17252;DHT22;8742;51.716;8.790;2024-01-30T04:03:12;7.30;99.90
17252;DHT22;8742;51.716;8.790;2024-01-30T04:05:40;7.30;99.90
17252;DHT22;8742;51.716;8.790;2024-01-30T04:08:07;7.30;99.90
17252;DHT22;8742;51.716;8.790;2024-01-30T04:10:34;7.30;99.90
17252;DHT22;8742;51.716;8.790;2024-01-30T04:13:01;7.40;99.90
17252;DHT22;8742;51.716;8.790;2024-01-30T04:15:28;7.40;99.90
17252;DHT22;8742;51.716;8.790;2024-01-30T04:17:57;7.40;99.90
17252;DHT22;8742;51.716;8.790;2024-01-30T04:20:24;7.40;99.90
17252;DHT22;8742;51.716;8.790;2024-01-30T04:22:53;7.40;99.90
17252;DHT22;8742;51.716;8.790;2024-01-30T04:25:19;7.40;99.90
17252;DHT22;8742;51.716;8.790;2024-01-30T04:27:46;7.30;99.90
17252;DHT22;8742;51.716;8.790;2024-01-30T04:30:13;7.30;99.90
17252;DHT22;8742;51.716;8.790;2024-01-30T04:32:40;7.30;99.90
17252;DHT22;8742;51.716;8.790;2024-01-30T04:35:07;7.30;99.90
17252;DHT22;8742;51.716;8.790;2024-01-30T04:37:34;7.30;99.90
17252;DHT22;8742;51.716;8.790;2024-01-30T04:40:02;7.20;99.90
17252;DHT22;8742;51.716;8.790;2024-01-30T04:42:29;7.20;99.90
17252;DHT22;8742;51.716;8.790;2024-01-30T04:44:56;7.20;99.90
17252;DHT22;8742;51.716;8.790;2024-01-30T04:47:23;7.20;99.90
17252;DHT22;8742;51.716;8.790;2024-01-30T04:49:51;7.20;99.90
17252;DHT22;8742;51.716;8.790;2024-01-30T04:52:18;7.20;99.90
17252;DHT22;8742;51.716;8.790;2024-01-30T04:54:45;7.20;99.90
17252;DHT22;8742;51.716;8.790;2024-01-30T04:57:13;7.20;99.90
17252;DHT22;8742;51.716;8.790;2024-01-30T04:59:40;7.20;99.90
17252;DHT22;8742;51.716;8.790;2024-01-30T05:02:07;7.20;99.90
17252;DHT22;8742;51.716;8.790;2024-01-30T05:04:34;7.20;99.90
17252;DHT22;8742;51.716;8.790;2024-01-30T05:07:00;7.30;99.90
17252;DHT22;8742;51.716;8.790;2024-01-30T05:09:27;7.30;99.90
17252;DHT22;8742;51.716;8.790;2024-01-30T05:11:54;7.30;99.90
17252;DHT22;8742;51.716;8.790;2024-01-30T05:14:22;7.30;99.90
17252;DHT22;8742;51.716;8.790;2024-01-30T05:16:49;7.30;99.90
17252;DHT22;8742;51.716;8.790;2024-01-30T05:19:16;7.30;99.90
17252;DHT22;8742;51.716;8.790;2024-01-30T05:21:44;7.30;99.90
17252;DHT22;8742;51.716;8.790;2024-01-30T05:24:11;7.30;99.90
17252;DHT22;8742;51.716;8.790;2024-01-30T05:26:37;7.30;99.90
17252;DHT22;8742;51.716;8.790;2024-01-30T05:29:05;7.30;99.90
17252;DHT22;8742;51.716;8.790;2024-01-30T05:31:34;7.30;99.90
17252;DHT22;8742;51.716;8.790;2024-01-30T05:34:01;7.30;99.90
17252;DHT22;8742;51.716;8.790;2024-01-30T05:36:28;7.30;99.90
17252;DHT22;8742;51.716;8.790;2024-01-30T05:38:56;7.30;99.90
17252;DHT22;8742;51.716;8.790;2024-01-30T05:41:23;7.30;99.90
17252;DHT22;8742;51.716;8.790;2024-01-30T05:43:49;7.30;99.90
17252;DHT22;8742;51.716;8.790;2024-01-30T05:46:16;7.30;99.90
17252;DHT22;8742;51.716;8.790;2024-01-30T05:48:45;7.30;99.90
17252;DHT22;8742;51.716;8.790;2024-01-30T05:51:11;7.20;99.90
17252;DHT22;8742;51.716;8.790;2024-01-30T05:53:38;7.20;99.90
17252;DHT22;8742;51.716;8.790;2024-01-30T05:56:06;7.20;99.90
17252;DHT22;8742;51.716;8.790;2024-01-30T05:58:33;7.30;99.90
17252;DHT22;8742;51.716;8.790;2024-01-30T06:00:59;7.30;99.90
17252;DHT22;8742;51.716;8.790;2024-01-30T06:03:26;7.30;99.90
17252;DHT22;8742;51.716;8.790;2024-01-30T06:05:54;7.30;99.90
17252;DHT22;8742;51.716;8.790;2024-01-30T06:08:21;7.30;99.90
17252;DHT22;8742;51.716;8.790;2024-01-30T06:10:48;7.30;99.90
17252;DHT22;8742;51.716;8.790;2024-01-30T06:13:15;7.40;99.90
17252;DHT22;8742;51.716;8.790;2024-01-30T06:15:42;7.40;99.90
17252;DHT22;8742;51.716;8.790;2024-01-30T06:18:09;7.40;99.90
17252;DHT22;8742;51.716;8.790;2024-01-30T06:20:36;7.40;99.90
17252;DHT22;8742;51.716;8.790;2024-01-30T06:23:04;7.40;99.90
17252;DHT22;8742;51.716;8.790;2024-01-30T06:25:31;7.40;99.90
17252;DHT22;8742;51.716;8.790;2024-01-30T06:27:57;7.40;99.90
17252;DHT22;8742;51.716;8.790;2024-01-30T06:30:24;7.40;99.90
17252;DHT22;8742;51.716;8.790;2024-01-30T06:32:51;7.40;99.90
17252;DHT22;8742;51.716;8.790;2024-01-30T06:35:18;7.50;99.90
17252;DHT22;8742;51.716;8.790;2024-01-30T06:37:45;7.50;99.90
17252;DHT22;8742;51.716;8.790;2024-01-30T06:40:13;7.50;99.90
17252;DHT22;8742;51.716;8.790;2024-01-30T06:42:40;7.50;99.90
17252;DHT22;8742;51.716;8.790;2024-01-30T06:45:08;7.50;99.90
17252;DHT22;8742;51.716;8.790;2024-01-30T06:47:35;7.50;99.90
17252;DHT22;8742;51.716;8.790;2024-01-30T06:50:02;7.50;99.90
17252;DHT22;8742;51.716;8.790;2024-01-30T06:52:29;7.50;99.90
17252;DHT22;8742;51.716;8.790;2024-01-30T06:54:55;7.60;99.90
17252;DHT22;8742;51.716;8.790;2024-01-30T06:57:24;7.60;99.90
17252;DHT22;8742;51.716;8.790;2024-01-30T06:59:52;7.60;99.90
17252;DHT22;8742;51.716;8.790;2024-01-30T07:02:22;7.70;99.90
17252;DHT22;8742;51.716;8.790;2024-01-30T07:04:49;7.70;99.90
17252;DHT22;8742;51.716;8.790;2024-01-30T07:07:16;7.70;99.90
17252;DHT22;8742;51.716;8.790;2024-01-30T07:09:42;7.70;99.90
17252;DHT22;8742;51.716;8.790;2024-01-30T07:12:10;7.70;99.90
17252;DHT22;8742;51.716;8.790;2024-01-30T07:14:38;7.70;99.90
17252;DHT22;8742;51.716;8.790;2024-01-30T07:17:05;7.70;99.90
17252;DHT22;8742;51.716;8.790;2024-01-30T07:19:32;7.70;99.90
17252;DHT22;8742;51.716;8.790;2024-01-30T07:22:00;7.70;99.90
17252;DHT22;8742;51.716;8.790;2024-01-30T07:24:27;7.80;99.90
17252;DHT22;8742;51.716;8.790;2024-01-30T07:26:54;7.80;99.90
17252;DHT22;8742;51.716;8.790;2024-01-30T07:29:21;7.80;99.90
17252;DHT22;8742;51.716;8.790;2024-01-30T07:31:49;7.90;99.90
17252;DHT22;8742;51.716;8.790;2024-01-30T07:34:16;7.90;99.90
17252;DHT22;8742;51.716;8.790;2024-01-30T07:36:43;7.90;99.90
17252;DHT22;8742;51.716;8.790;2024-01-30T07:39:09;7.90;99.90
17252;DHT22;8742;51.716;8.790;2024-01-30T07:41:36;7.90;99.90
17252;DHT22;8742;51.716;8.790;2024-01-30T07:44:03;7.90;99.90
17252;DHT22;8742;51.716;8.790;2024-01-30T07:46:30;8.00;99.90
17252;DHT22;8742;51.716;8.790;2024-01-30T07:48:58;8.00;99.90
17252;DHT22;8742;51.716;8.790;2024-01-30T07:51:25;8.10;99.90
17252;DHT22;8742;51.716;8.790;2024-01-30T07:53:54;8.10;99.90
17252;DHT22;8742;51.716;8.790;2024-01-30T07:56:21;8.10;99.90
17252;DHT22;8742;51.716;8.790;2024-01-30T07:58:47;8.20;99.90
17252;DHT22;8742;51.716;8.790;2024-01-30T08:01:15;8.20;99.90
17252;DHT22;8742;51.716;8.790;2024-01-30T08:03:42;8.20;99.90
17252;DHT22;8742;51.716;8.790;2024-01-30T08:06:10;8.30;99.90
17252;DHT22;8742;51.716;8.790;2024-01-30T08:08:37;8.30;99.90
17252;DHT22;8742;51.716;8.790;2024-01-30T08:11:04;8.40;99.90
17252;DHT22;8742;51.716;8.790;2024-01-30T08:13:31;8.40;99.90
17252;DHT22;8742;51.716;8.790;2024-01-30T08:15:58;8.40;99.90
17252;DHT22;8742;51.716;8.790;2024-01-30T08:18:24;8.50;99.90
17252;DHT22;8742;51.716;8.790;2024-01-30T08:20:52;8.50;99.90
17252;DHT22;8742;51.716;8.790;2024-01-30T08:23:20;8.60;99.90
17252;DHT22;8742;51.716;8.790;2024-01-30T08:25:46;8.60;99.90
17252;DHT22;8742;51.716;8.790;2024-01-30T08:28:13;8.70;99.90
17252;DHT22;8742;51.716;8.790;2024-01-30T08:30:40;8.70;99.90
17252;DHT22;8742;51.716;8.790;2024-01-30T08:33:07;8.80;99.90
17252;DHT22;8742;51.716;8.790;2024-01-30T08:35:34;8.80;99.90
17252;DHT22;8742;51.716;8.790;2024-01-30T08:38:01;8.90;99.90
17252;DHT22;8742;51.716;8.790;2024-01-30T08:40:30;9.00;99.90
17252;DHT22;8742;51.716;8.790;2024-01-30T08:42:57;9.10;99.90
17252;DHT22;8742;51.716;8.790;2024-01-30T08:45:24;9.20;99.90
17252;DHT22;8742;51.716;8.790;2024-01-30T08:47:50;9.30;99.90
17252;DHT22;8742;51.716;8.790;2024-01-30T08:50:17;9.40;99.90
17252;DHT22;8742;51.716;8.790;2024-01-30T08:52:44;9.60;99.90
17252;DHT22;8742;51.716;8.790;2024-01-30T08:55:11;9.60;99.90
17252;DHT22;8742;51.716;8.790;2024-01-30T08:57:39;9.80;99.90
17252;DHT22;8742;51.716;8.790;2024-01-30T09:00:07;9.90;99.90
17252;DHT22;8742;51.716;8.790;2024-01-30T09:02:35;10.00;99.90
17252;DHT22;8742;51.716;8.790;2024-01-30T09:05:02;10.10;99.90
17252;DHT22;8742;51.716;8.790;2024-01-30T09:07:28;10.20;99.90
17252;DHT22;8742;51.716;8.790;2024-01-30T09:09:55;10.30;99.90
17252;DHT22;8742;51.716;8.790;2024-01-30T09:12:23;10.30;99.90
17252;DHT22;8742;51.716;8.790;2024-01-30T09:14:51;10.30;99.90
17252;DHT22;8742;51.716;8.790;2024-01-30T09:17:18;10.40;99.90
17252;DHT22;8742;51.716;8.790;2024-01-30T09:19:45;10.60;99.90
17252;DHT22;8742;51.716;8.790;2024-01-30T09:22:12;10.70;99.90
17252;DHT22;8742;51.716;8.790;2024-01-30T09:24:40;11.00;99.90
17252;DHT22;8742;51.716;8.790;2024-01-30T09:27:07;11.20;99.90
17252;DHT22;8742;51.716;8.790;2024-01-30T09:29:33;11.40;99.90
17252;DHT22;8742;51.716;8.790;2024-01-30T09:32:04;11.40;99.90
17252;DHT22;8742;51.716;8.790;2024-01-30T09:34:31;11.40;99.90
17252;DHT22;8742;51.716;8.790;2024-01-30T09:36:58;11.40;99.90
17252;DHT22;8742;51.716;8.790;2024-01-30T09:39:25;11.40;99.90
17252;DHT22;8742;51.716;8.790;2024-01-30T09:42:02;11.50;99.90
17252;DHT22;8742;51.716;8.790;2024-01-30T09:44:34;11.60;99.90
17252;DHT22;8742;51.716;8.790;2024-01-30T09:47:03;11.70;99.90
17252;DHT22;8742;51.716;8.790;2024-01-30T09:49:32;11.90;99.90
17252;DHT22;8742;51.716;8.790;2024-01-30T09:51:59;12.10;99.90
17252;DHT22;8742;51.716;8.790;2024-01-30T09:54:25;12.30;99.90
17252;DHT22;8742;51.716;8.790;2024-01-30T09:56:52;12.40;99.90
17252;DHT22;8742;51.716;8.790;2024-01-30T09:59:19;12.40;99.90
17252;DHT22;8742;51.716;8.790;2024-01-30T10:01:46;12.50;99.90
17252;DHT22;8742;51.716;8.790;2024-01-30T10:04:14;12.50;99.90
17252;DHT22;8742;51.716;8.790;2024-01-30T10:06:41;12.60;99.90
17252;DHT22;8742;51.716;8.790;2024-01-30T10:09:08;12.70;99.90
17252;DHT22;8742;51.716;8.790;2024-01-30T10:11:35;12.80;99.90
17252;DHT22;8742;51.716;8.790;2024-01-30T10:14:03;12.90;99.90
17252;DHT22;8742;51.716;8.790;2024-01-30T10:16:30;12.90;99.90
17252;DHT22;8742;51.716;8.790;2024-01-30T10:18:56;12.80;99.90
17252;DHT22;8742;51.716;8.790;2024-01-30T10:21:24;12.70;99.90
17252;DHT22;8742;51.716;8.790;2024-01-30T10:23:51;12.50;99.90
17252;DHT22;8742;51.716;8.790;2024-01-30T10:26:19;12.40;99.90
17252;DHT22;8742;51.716;8.790;2024-01-30T10:28:45;12.30;99.90
17252;DHT22;8742;51.716;8.790;2024-01-30T10:31:16;12.20;99.90
17252;DHT22;8742;51.716;8.790;2024-01-30T10:33:44;12.10;99.90
17252;DHT22;8742;51.716;8.790;2024-01-30T10:36:13;12.10;99.90
17252;DHT22;8742;51.716;8.790;2024-01-30T10:38:42;12.10;99.90
17252;DHT22;8742;51.716;8.790;2024-01-30T10:41:13;12.10;99.90
17252;DHT22;8742;51.716;8.790;2024-01-30T10:43:42;12.00;99.90
17252;DHT22;8742;51.716;8.790;2024-01-30T10:46:18;12.00;99.90
17252;DHT22;8742;51.716;8.790;2024-01-30T10:48:51;12.00;99.90
17252;DHT22;8742;51.716;8.790;2024-01-30T10:51:22;12.10;99.90
17252;DHT22;8742;51.716;8.790;2024-01-30T10:53:52;12.10;99.90
17252;DHT22;8742;51.716;8.790;2024-01-30T10:56:21;12.20;99.90
17252;DHT22;8742;51.716;8.790;2024-01-30T10:58:48;12.20;99.90
17252;DHT22;8742;51.716;8.790;2024-01-30T11:01:17;12.30;99.90
17252;DHT22;8742;51.716;8.790;2024-01-30T11:03:44;12.50;99.90
17252;DHT22;8742;51.716;8.790;2024-01-30T11:06:11;12.90;99.90
17252;DHT22;8742;51.716;8.790;2024-01-30T11:08:39;13.40;99.90
17252;DHT22;8742;51.716;8.790;2024-01-30T11:11:09;13.80;99.90
17252;DHT22;8742;51.716;8.790;2024-01-30T11:13:36;14.20;99.90
17252;DHT22;8742;51.716;8.790;2024-01-30T11:16:04;14.40;99.90
17252;DHT22;8742;51.716;8.790;2024-01-30T11:18:32;14.80;99.90
17252;DHT22;8742;51.716;8.790;2024-01-30T11:21:00;15.00;99.90
17252;DHT22;8742;51.716;8.790;2024-01-30T11:23:28;15.20;99.90
17252;DHT22;8742;51.716;8.790;2024-01-30T11:25:56;15.70;99.90
17252;DHT22;8742;51.716;8.790;2024-01-30T11:28:24;15.80;99.90
17252;DHT22;8742;51.716;8.790;2024-01-30T11:31:03;15.70;99.90
17252;DHT22;8742;51.716;8.790;2024-01-30T11:33:30;15.50;99.90
17252;DHT22;8742;51.716;8.790;2024-01-30T11:35:58;15.40;99.90
17252;DHT22;8742;51.716;8.790;2024-01-30T11:38:26;15.40;99.90
17252;DHT22;8742;51.716;8.790;2024-01-30T11:40:54;15.50;99.90
17252;DHT22;8742;51.716;8.790;2024-01-30T11:43:22;15.60;99.90
17252;DHT22;8742;51.716;8.790;2024-01-30T11:45:50;15.60;99.90
17252;DHT22;8742;51.716;8.790;2024-01-30T11:48:17;15.90;99.90
17252;DHT22;8742;51.716;8.790;2024-01-30T11:50:44;16.30;99.90
17252;DHT22;8742;51.716;8.790;2024-01-30T11:53:11;16.80;99.90
17252;DHT22;8742;51.716;8.790;2024-01-30T11:55:38;17.30;99.90
17252;DHT22;8742;51.716;8.790;2024-01-30T11:58:05;17.50;99.90
17252;DHT22;8742;51.716;8.790;2024-01-30T12:00:32;17.50;99.90
17252;DHT22;8742;51.716;8.790;2024-01-30T12:03:01;17.50;99.90
17252;DHT22;8742;51.716;8.790;2024-01-30T12:05:28;17.50;99.90
17252;DHT22;8742;51.716;8.790;2024-01-30T12:07:55;17.90;99.90
17252;DHT22;8742;51.716;8.790;2024-01-30T12:10:24;18.80;99.90
17252;DHT22;8742;51.716;8.790;2024-01-30T12:12:51;19.50;99.90
17252;DHT22;8742;51.716;8.790;2024-01-30T12:15:20;19.90;99.90
17252;DHT22;8742;51.716;8.790;2024-01-30T12:17:47;19.50;99.90
17252;DHT22;8742;51.716;8.790;2024-01-30T12:20:18;18.80;99.90
17252;DHT22;8742;51.716;8.790;2024-01-30T12:22:47;18.40;99.90
17252;DHT22;8742;51.716;8.790;2024-01-30T12:25:14;18.10;99.90
17252;DHT22;8742;51.716;8.790;2024-01-30T12:27:43;18.00;99.90
17252;DHT22;8742;51.716;8.790;2024-01-30T12:30:11;17.90;99.90
17252;DHT22;8742;51.716;8.790;2024-01-30T12:32:40;18.00;99.90
17252;DHT22;8742;51.716;8.790;2024-01-30T12:35:08;18.10;99.90
17252;DHT22;8742;51.716;8.790;2024-01-30T12:37:36;18.00;99.90
17252;DHT22;8742;51.716;8.790;2024-01-30T12:40:04;17.70;99.90
17252;DHT22;8742;51.716;8.790;2024-01-30T12:42:32;17.40;99.90
17252;DHT22;8742;51.716;8.790;2024-01-30T12:44:59;17.00;99.90
17252;DHT22;8742;51.716;8.790;2024-01-30T12:47:26;16.80;99.90
17252;DHT22;8742;51.716;8.790;2024-01-30T12:49:53;16.40;99.90
17252;DHT22;8742;51.716;8.790;2024-01-30T12:52:21;16.20;99.90
17252;DHT22;8742;51.716;8.790;2024-01-30T12:54:50;15.90;99.90
17252;DHT22;8742;51.716;8.790;2024-01-30T12:57:18;15.70;99.90
17252;DHT22;8742;51.716;8.790;2024-01-30T12:59:45;15.50;99.90
17252;DHT22;8742;51.716;8.790;2024-01-30T13:02:13;15.30;99.90
17252;DHT22;8742;51.716;8.790;2024-01-30T13:04:40;15.10;99.90
17252;DHT22;8742;51.716;8.790;2024-01-30T13:07:07;15.00;99.90
17252;DHT22;8742;51.716;8.790;2024-01-30T13:09:34;14.90;99.90
17252;DHT22;8742;51.716;8.790;2024-01-30T13:12:02;14.80;99.90
17252;DHT22;8742;51.716;8.790;2024-01-30T13:14:29;14.70;99.90
17252;DHT22;8742;51.716;8.790;2024-01-30T13:16:56;14.70;99.90
17252;DHT22;8742;51.716;8.790;2024-01-30T13:19:23;14.60;99.90
17252;DHT22;8742;51.716;8.790;2024-01-30T13:21:50;14.60;99.90
17252;DHT22;8742;51.716;8.790;2024-01-30T13:24:16;14.50;99.90
17252;DHT22;8742;51.716;8.790;2024-01-30T13:26:47;14.50;99.90
17252;DHT22;8742;51.716;8.790;2024-01-30T13:29:15;14.50;99.90
17252;DHT22;8742;51.716;8.790;2024-01-30T13:31:42;14.40;99.90
17252;DHT22;8742;51.716;8.790;2024-01-30T13:34:09;14.40;99.90
17252;DHT22;8742;51.716;8.790;2024-01-30T13:36:36;14.40;99.90
17252;DHT22;8742;51.716;8.790;2024-01-30T13:39:03;14.30;99.90
17252;DHT22;8742;51.716;8.790;2024-01-30T13:41:35;14.30;99.90
17252;DHT22;8742;51.716;8.790;2024-01-30T13:44:02;14.30;99.90
17252;DHT22;8742;51.716;8.790;2024-01-30T13:46:31;14.20;99.90
17252;DHT22;8742;51.716;8.790;2024-01-30T13:48:58;14.20;99.90
17252;DHT22;8742;51.716;8.790;2024-01-30T13:51:25;14.10;99.90
17252;DHT22;8742;51.716;8.790;2024-01-30T13:53:52;14.10;99.90
17252;DHT22;8742;51.716;8.790;2024-01-30T13:56:19;14.10;99.90
17252;DHT22;8742;51.716;8.790;2024-01-30T13:58:48;14.00;99.90
17252;DHT22;8742;51.716;8.790;2024-01-30T14:01:15;14.00;99.90
17252;DHT22;8742;51.716;8.790;2024-01-30T14:03:43;13.90;99.90
17252;DHT22;8742;51.716;8.790;2024-01-30T14:06:10;13.90;99.90
17252;DHT22;8742;51.716;8.790;2024-01-30T14:08:37;13.80;99.90
17252;DHT22;8742;51.716;8.790;2024-01-30T14:11:04;13.80;99.90
17252;DHT22;8742;51.716;8.790;2024-01-30T14:13:31;13.80;99.90
17252;DHT22;8742;51.716;8.790;2024-01-30T14:15:58;13.70;99.90
17252;DHT22;8742;51.716;8.790;2024-01-30T14:18:25;13.70;99.90
17252;DHT22;8742;51.716;8.790;2024-01-30T14:20:53;13.70;99.90
17252;DHT22;8742;51.716;8.790;2024-01-30T14:23:20;13.60;99.90
17252;DHT22;8742;51.716;8.790;2024-01-30T14:25:48;13.60;99.90
17252;DHT22;8742;51.716;8.790;2024-01-30T14:28:17;13.50;99.90
17252;DHT22;8742;51.716;8.790;2024-01-30T14:30:43;13.50;99.90
17252;DHT22;8742;51.716;8.790;2024-01-30T14:33:10;13.50;99.90
17252;DHT22;8742;51.716;8.790;2024-01-30T14:35:37;13.40;99.90
17252;DHT22;8742;51.716;8.790;2024-01-30T14:38:05;13.30;99.90
17252;DHT22;8742;51.716;8.790;2024-01-30T14:40:33;13.30;99.90
17252;DHT22;8742;51.716;8.790;2024-01-30T14:42:59;13.20;99.90
17252;DHT22;8742;51.716;8.790;2024-01-30T14:45:26;13.20;99.90
17252;DHT22;8742;51.716;8.790;2024-01-30T14:47:53;13.10;99.90
17252;DHT22;8742;51.716;8.790;2024-01-30T14:50:21;13.10;99.90
17252;DHT22;8742;51.716;8.790;2024-01-30T14:52:48;13.10;99.90
17252;DHT22;8742;51.716;8.790;2024-01-30T14:55:16;13.10;99.90
17252;DHT22;8742;51.716;8.790;2024-01-30T14:57:44;13.00;99.90
17252;DHT22;8742;51.716;8.790;2024-01-30T15:00:12;13.00;99.90
17252;DHT22;8742;51.716;8.790;2024-01-30T15:02:41;12.90;99.90
17252;DHT22;8742;51.716;8.790;2024-01-30T15:05:08;12.90;99.90
17252;DHT22;8742;51.716;8.790;2024-01-30T15:07:36;12.90;99.90
17252;DHT22;8742;51.716;8.790;2024-01-30T15:10:03;12.80;99.90
17252;DHT22;8742;51.716;8.790;2024-01-30T15:12:32;12.80;99.90
17252;DHT22;8742;51.716;8.790;2024-01-30T15:14:59;12.70;99.90
17252;DHT22;8742;51.716;8.790;2024-01-30T15:17:25;12.70;99.90
17252;DHT22;8742;51.716;8.790;2024-01-30T15:19:52;12.70;99.90
17252;DHT22;8742;51.716;8.790;2024-01-30T15:22:19;12.70;99.90
17252;DHT22;8742;51.716;8.790;2024-01-30T15:24:46;12.60;99.90
17252;DHT22;8742;51.716;8.790;2024-01-30T15:27:13;12.60;99.90
17252;DHT22;8742;51.716;8.790;2024-01-30T15:29:41;12.60;99.90
17252;DHT22;8742;51.716;8.790;2024-01-30T15:32:08;12.50;99.90
17252;DHT22;8742;51.716;8.790;2024-01-30T15:34:35;12.50;99.90
17252;DHT22;8742;51.716;8.790;2024-01-30T15:37:02;12.50;99.90
17252;DHT22;8742;51.716;8.790;2024-01-30T15:39:29;12.40;99.90
17252;DHT22;8742;51.716;8.790;2024-01-30T15:41:56;12.40;99.90
17252;DHT22;8742;51.716;8.790;2024-01-30T15:44:23;12.40;99.90
17252;DHT22;8742;51.716;8.790;2024-01-30T15:46:52;12.30;99.90
17252;DHT22;8742;51.716;8.790;2024-01-30T15:49:19;12.40;99.90
17252;DHT22;8742;51.716;8.790;2024-01-30T15:51:46;12.40;99.90
17252;DHT22;8742;51.716;8.790;2024-01-30T15:54:13;12.30;99.90